Loch Raven, Maryland
Current Conditions -  °F | °C
As of 5:50 PM on Wednesday 17 Dec 2014 (Local Time) from KMTN Reporting Station
Scattered Clouds Scattered Clouds  
Wind Chill: 37°   Ceiling: Unl
Heat Index: 45°   Visibility: 10mi
Dew Point: 30°   Wind: 16mph
Humidity: 57%   Direction: 280°W
Pressure: 30.01"   Gusts: NA
Location:  39.4157°N, 76.6096°W
Report Text: KMTN 172250Z 28014KT 10SM SCT050 07/M01 A3001
Loading
Personal Weather Stations






























Interactive Weather Map New forecast layout! Learn more

10-Day Weather Forecast

Advertisements
Track Severe Weather on mobile